createdAt,value
2022-08-05T00:00:48.403Z,102195.25
2022-08-05T00:03:25.151Z,102195.13
2022-08-05T00:06:05.019Z,102190.66
2022-08-05T00:08:46.539Z,102191.41
2022-08-05T00:11:30.598Z,102187.84
2022-08-05T00:14:12.755Z,102192.94
2022-08-05T00:16:52.793Z,102194.56
2022-08-05T00:19:23.273Z,102197.94
2022-08-05T00:21:54.684Z,102201.25
2022-08-05T00:24:31.138Z,102202.06
2022-08-05T00:27:10.579Z,102194.16
2022-08-05T00:29:43.705Z,102193.19
2022-08-05T00:32:15.288Z,102204.34
2022-08-05T00:35:07.644Z,102198.25
2022-08-05T00:37:52.852Z,102209.41
2022-08-05T00:40:27.942Z,102204.97
2022-08-05T00:43:00.924Z,102203.09
2022-08-05T00:45:38.282Z,102203.91
2022-08-05T00:48:10.673Z,102197.75
2022-08-05T00:50:44.215Z,102201.06
2022-08-05T00:54:01.325Z,102203.59
2022-08-05T00:56:33.874Z,102196.63
2022-08-05T00:59:10.749Z,102201.75
2022-08-05T01:01:42.834Z,102194.75
2022-08-05T01:04:20.233Z,102197.28
2022-08-05T01:06:55.797Z,102198.94
2022-08-05T01:09:31.902Z,102197.13
2022-08-05T01:12:04.827Z,102200.44
2022-08-05T01:14:50.523Z,102204.66
2022-08-05T01:17:30.962Z,102205.38
2022-08-05T01:20:17.698Z,102199.25
2022-08-05T01:22:57.285Z,102198.22
2022-08-05T01:25:52.346Z,102201.56
2022-08-05T01:28:39.684Z,102204.78
2022-08-05T01:31:16.645Z,102204.66
2022-08-05T01:33:53.657Z,102203.56
2022-08-05T01:36:32.243Z,102200.84
2022-08-05T01:39:02.608Z,102207.66
2022-08-05T01:41:33.169Z,102205.84
2022-08-05T01:44:19.759Z,102204.03
2022-08-05T01:46:48.371Z,102209.16
2022-08-05T01:49:24.088Z,102208.16
2022-08-05T01:51:55.505Z,102207.22
2022-08-05T01:54:28.382Z,102213.19
2022-08-05T01:58:29.709Z,102207.16
2022-08-05T01:59:56.433Z,102211.38
2022-08-05T02:02:28.776Z,102214.66
2022-08-05T02:05:03.099Z,102216.34
2022-08-05T02:07:34.102Z,102218.88
2022-08-05T02:10:05.973Z,102218.81
2022-08-05T02:12:40.176Z,102219.53
2022-08-05T02:15:14.659Z,102211.72
2022-08-05T02:18:28.726Z,102218.63
2022-08-05T02:20:47.912Z,102219.22
2022-08-05T02:23:39.141Z,102218.25
2022-08-05T02:26:12.598Z,102220.66
2022-08-05T02:28:58.246Z,102214.53
2022-08-05T02:31:34.777Z,102217.84
2022-08-05T02:34:05.157Z,102221.25
2022-08-05T02:36:37.160Z,102221.16
2022-08-05T02:39:21.391Z,102214.16
2022-08-05T02:42:00.981Z,102220.94
2022-08-05T02:44:33.490Z,102223.44
2022-08-05T02:47:13.459Z,102225.03
2022-08-05T02:49:58.076Z,102224.00
2022-08-05T02:52:30.524Z,102217.84
2022-08-05T02:55:05.498Z,102222.09
2022-08-05T02:58:09.883Z,102225.50
2022-08-05T03:00:26.842Z,102220.25
2022-08-05T03:03:10.540Z,102217.59
2022-08-05T03:06:56.030Z,102211.50
2022-08-05T03:08:42.673Z,102217.50
2022-08-05T03:11:57.171Z,102216.59
2022-08-05T03:14:14.539Z,102206.16
2022-08-05T03:16:43.230Z,102214.72
2022-08-05T03:19:33.056Z,102207.84
2022-08-05T03:22:04.845Z,102216.38
2022-08-05T03:24:34.240Z,102212.84
2022-08-05T03:27:03.164Z,102223.94
2022-08-05T03:29:44.759Z,102220.50
2022-08-05T03:32:31.451Z,102212.75
2022-08-05T03:35:01.427Z,102209.22
2022-08-05T03:37:41.711Z,102211.75
2022-08-05T03:40:31.313Z,102214.25
2022-08-05T03:43:58.617Z,102207.22
2022-08-05T03:46:09.173Z,102207.09
2022-08-05T03:48:37.390Z,102206.09
2022-08-05T03:52:49.112Z,102209.50
2022-08-05T03:55:50.264Z,102207.69
2022-08-05T03:57:02.867Z,102207.50
2022-08-05T03:59:55.001Z,102208.28
2022-08-05T04:02:38.888Z,102203.94
2022-08-05T04:05:19.352Z,102211.69
2022-08-05T04:07:57.933Z,102205.50
2022-08-05T04:10:38.098Z,102210.69
2022-08-05T04:13:13.918Z,102212.31
2022-08-05T04:16:03.084Z,102199.28
2022-08-05T04:18:34.456Z,102192.28
2022-08-05T04:21:04.015Z,102200.88
2022-08-05T04:24:05.368Z,102194.81
2022-08-05T04:26:22.336Z,102199.13
2022-08-05T04:28:51.249Z,102206.91
2022-08-05T04:31:20.788Z,102203.50
2022-08-05T04:34:17.269Z,102198.34
2022-08-05T04:36:45.306Z,102201.78
2022-08-05T04:39:20.860Z,102212.13
2022-08-05T04:41:51.175Z,102198.34
2022-08-05T04:44:21.326Z,102204.38
2022-08-05T04:46:58.527Z,102201.78
2022-08-05T04:49:39.004Z,102214.72
2022-08-05T04:52:15.354Z,102215.53
2022-08-05T04:54:44.714Z,102217.38
2022-08-05T04:57:13.169Z,102212.22
2022-08-05T04:59:41.240Z,102220.00
2022-08-05T05:02:37.196Z,102224.41
2022-08-05T05:05:02.119Z,102224.53
2022-08-05T05:07:32.843Z,102222.00
2022-08-05T05:10:06.686Z,102228.81
2022-08-05T05:12:36.666Z,102232.34
2022-08-05T05:15:05.847Z,102218.56
2022-08-05T05:17:56.180Z,102230.56
2022-08-05T05:20:28.536Z,102229.75
2022-08-05T05:22:57.252Z,102243.66
2022-08-05T05:25:32.807Z,102239.50
2022-08-05T05:28:09.313Z,102234.47
2022-08-05T05:30:38.861Z,102231.94
2022-08-05T05:33:16.067Z,102238.91
2022-08-05T05:35:44.946Z,102242.31
2022-08-05T05:38:14.285Z,102235.41
2022-08-05T05:40:50.021Z,102248.34
2022-08-05T05:43:28.167Z,102243.16
2022-08-05T05:46:15.810Z,102242.31
2022-08-05T05:48:44.667Z,102245.03
2022-08-05T05:51:19.159Z,102248.59
2022-08-05T05:53:57.345Z,102248.66
2022-08-05T05:56:33.348Z,102250.44
2022-08-05T05:59:03.412Z,102251.31
2022-08-05T06:01:37.995Z,102254.09
2022-08-05T06:04:07.272Z,102259.78
2022-08-05T06:06:36.578Z,102273.88
2022-08-05T06:09:05.479Z,102262.78
2022-08-05T06:11:34.950Z,102276.75
2022-08-05T06:14:07.562Z,102270.06
2022-08-05T06:16:37.101Z,102269.03
2022-08-05T06:19:07.559Z,102278.50
2022-08-05T06:21:38.447Z,102287.22
2022-08-05T06:24:11.920Z,102291.00
2022-08-05T06:26:51.491Z,102286.34
2022-08-05T06:29:25.104Z,102289.41
2022-08-05T06:32:24.992Z,102289.22
2022-08-05T06:34:56.656Z,102289.72
2022-08-05T06:37:56.570Z,102297.66
2022-08-05T06:40:18.426Z,102303.81
2022-08-05T06:42:51.975Z,102301.56
2022-08-05T06:45:44.672Z,102301.25
2022-08-05T06:48:36.386Z,102310.69
2022-08-05T06:51:01.305Z,102316.50
2022-08-05T06:53:39.381Z,102322.09
2022-08-05T06:56:07.718Z,102322.56
2022-08-05T06:58:58.596Z,102327.31
2022-08-05T07:01:32.336Z,102328.53
2022-08-05T07:04:02.459Z,102326.31
2022-08-05T07:06:31.989Z,102327.06
2022-08-05T07:09:04.230Z,102323.25
2022-08-05T07:11:37.006Z,102329.97
2022-08-05T07:14:32.271Z,102328.44
2022-08-05T07:18:01.615Z,102329.81
2022-08-05T07:22:42.331Z,102335.22
2022-08-05T07:25:55.384Z,102323.84
2022-08-05T07:28:07.332Z,102319.66
2022-08-05T07:30:39.994Z,102324.31
2022-08-05T07:33:10.019Z,102336.47
2022-08-05T07:36:01.558Z,102340.63
2022-08-05T07:38:33.599Z,102342.41
2022-08-05T07:41:16.715Z,102342.69
2022-08-05T07:43:51.286Z,102354.66
2022-08-05T07:46:24.389Z,102348.19
2022-08-05T07:49:02.459Z,102348.47
2022-08-05T07:51:53.751Z,102347.72
2022-08-05T07:54:31.169Z,102354.88
2022-08-05T07:57:17.765Z,102365.13
2022-08-05T07:59:52.059Z,102364.28
2022-08-05T08:02:26.700Z,102362.59
2022-08-05T08:05:02.031Z,102358.25
2022-08-05T08:07:39.638Z,102358.31
2022-08-05T08:10:23.262Z,102362.78
2022-08-05T08:12:54.374Z,102368.31
2022-08-05T08:16:35.675Z,102365.28
2022-08-05T08:18:21.250Z,102356.31
2022-08-05T08:21:02.504Z,102367.38
2022-08-05T08:24:03.013Z,102374.94
2022-08-05T08:26:29.318Z,102377.88
2022-08-05T08:28:59.846Z,102378.97
2022-08-05T08:31:48.569Z,102383.84
2022-08-05T08:34:30.228Z,102385.56
2022-08-05T08:37:27.918Z,102382.13
2022-08-05T08:39:57.706Z,102396.19
2022-08-05T08:42:46.674Z,102390.91
2022-08-05T08:45:59.384Z,102380.22
2022-08-05T08:49:03.375Z,102382.72
2022-08-05T08:52:04.106Z,102392.09
2022-08-05T08:54:47.909Z,102386.59
2022-08-05T08:57:58.038Z,102379.06
2022-08-05T09:00:24.312Z,102382.78
2022-08-05T09:03:45.471Z,102393.25
2022-08-05T09:12:53.220Z,102396.78
2022-08-05T09:15:30.533Z,102394.94
2022-08-05T09:17:59.451Z,102396.19
2022-08-05T09:20:37.804Z,102406.69
2022-08-05T09:23:19.078Z,102399.59
2022-08-05T09:26:03.567Z,102397.88
2022-08-05T09:28:35.860Z,102408.38
2022-08-05T09:31:22.174Z,102399.69
2022-08-05T09:33:56.159Z,102406.38
2022-08-05T09:36:27.385Z,102403.69
2022-08-05T09:39:18.056Z,102396.03
2022-08-05T09:42:04.732Z,102409.97
2022-08-05T09:44:40.962Z,102407.56
2022-08-05T09:47:12.725Z,102404.88
2022-08-05T09:49:55.005Z,102402.91
2022-08-05T09:52:30.806Z,102400.13
2022-08-05T09:55:06.434Z,102402.66
2022-08-05T09:58:00.788Z,102406.09
2022-08-05T10:00:38.895Z,102411.50
2022-08-05T10:09:28.384Z,102423.28
2022-08-05T10:12:39.082Z,102427.69
2022-08-05T10:15:51.941Z,102438.13
2022-08-05T10:18:48.318Z,102441.66
2022-08-05T10:21:24.129Z,102450.38
2022-08-05T10:24:10.903Z,102446.00
2022-08-05T10:26:51.459Z,102458.22
2022-08-05T10:30:06.839Z,102456.47
2022-08-05T10:40:03.175Z,102473.16
2022-08-05T10:42:43.809Z,102467.03
2022-08-05T10:48:31.892Z,102474.94
2022-08-05T10:51:04.013Z,102470.56
2022-08-05T10:53:38.057Z,102476.69
2022-08-05T10:56:14.607Z,102481.94
2022-08-05T10:59:07.304Z,102487.19
2022-08-05T11:02:07.524Z,102487.16
2022-08-05T11:04:44.533Z,102487.13
2022-08-05T11:07:18.696Z,102492.44
2022-08-05T11:10:09.876Z,102485.41
2022-08-05T11:12:54.172Z,102484.53
2022-08-05T11:15:58.898Z,102483.59
2022-08-05T11:18:24.748Z,102481.84
2022-08-05T11:20:53.132Z,102476.56
2022-08-05T11:24:04.620Z,102489.63
2022-08-05T11:26:28.790Z,102492.25
2022-08-05T11:32:47.946Z,102480.78
2022-08-05T11:35:30.729Z,102485.22
2022-08-05T11:38:30.742Z,102484.41
2022-08-05T11:41:57.942Z,102486.16
2022-08-05T11:44:41.142Z,102485.03
2022-08-05T11:47:15.124Z,102479.50
2022-08-05T11:49:55.432Z,102482.16
2022-08-05T11:52:29.287Z,102490.34
2022-08-05T11:55:31.953Z,102479.91
2022-08-05T11:58:10.761Z,102481.06
2022-08-05T12:00:46.986Z,102483.78
2022-08-05T12:03:33.214Z,102478.50
2022-08-05T12:06:10.101Z,102478.47
2022-08-05T12:08:51.017Z,102463.75
2022-08-05T12:11:22.612Z,102469.91
2022-08-05T12:14:04.349Z,102482.44
2022-08-05T12:16:38.826Z,102486.03
2022-08-05T12:20:16.893Z,102479.28
2022-08-05T12:22:01.822Z,102494.66
2022-08-05T12:24:43.784Z,102494.06
2022-08-05T12:27:53.111Z,102499.59
2022-08-05T12:30:32.201Z,102500.97
2022-08-05T12:34:06.953Z,102505.28
2022-08-05T12:36:51.137Z,102490.56
2022-08-05T12:39:27.889Z,102501.69
2022-08-05T12:41:59.048Z,102495.78
2022-08-05T12:44:34.605Z,102505.75
2022-08-05T12:47:25.501Z,102497.22
2022-08-05T12:50:06.473Z,102499.41
2022-08-05T12:52:42.806Z,102515.44
2022-08-05T12:55:25.536Z,102508.78
2022-08-05T12:58:50.579Z,102515.84
2022-08-05T13:02:00.689Z,102519.03
2022-08-05T13:03:48.696Z,102522.28
2022-08-05T13:06:19.896Z,102517.75
2022-08-05T13:08:51.834Z,102519.22
2022-08-05T13:11:25.312Z,102521.75
2022-08-05T13:14:24.526Z,102515.06
2022-08-05T13:17:09.862Z,102524.97
2022-08-05T13:19:52.489Z,102524.25
2022-08-05T13:22:29.979Z,102523.09
2022-08-05T13:25:08.123Z,102529.84
2022-08-05T13:27:51.353Z,102517.06
2022-08-05T13:30:34.079Z,102519.72
2022-08-05T13:33:05.003Z,102511.19
2022-08-05T13:35:51.185Z,102512.25
2022-08-05T13:38:30.719Z,102514.94
2022-08-05T13:41:04.335Z,102520.94
2022-08-05T13:43:45.377Z,102512.00
2022-08-05T13:46:43.644Z,102523.91
2022-08-05T13:49:15.991Z,102519.94
2022-08-05T13:51:59.046Z,102514.16
2022-08-05T13:54:53.417Z,102511.38
2022-08-05T13:57:24.934Z,102517.53
2022-08-05T13:59:57.423Z,102526.09
2022-08-05T14:02:31.999Z,102535.41
2022-08-05T14:05:15.327Z,102527.22
2022-08-05T14:08:10.914Z,102527.19
2022-08-05T14:10:49.975Z,102533.19
2022-08-05T14:13:28.621Z,102533.13
2022-08-05T14:16:07.798Z,102533.91
2022-08-05T14:18:39.227Z,102530.84
2022-08-05T14:22:06.846Z,102544.19
2022-08-05T14:23:55.571Z,102547.84
2022-08-05T14:26:36.892Z,102557.06
2022-08-05T14:29:15.954Z,102552.22
2022-08-05T14:32:02.650Z,102555.94
2022-08-05T14:34:35.361Z,102558.41
2022-08-05T14:37:04.172Z,102565.34
2022-08-05T14:39:49.452Z,102558.56
2022-08-05T14:42:21.204Z,102559.97
2022-08-05T14:44:51.603Z,102557.63
2022-08-05T14:47:58.552Z,102560.69
2022-08-05T14:50:18.369Z,102552.69
2022-08-05T16:48:33.633Z,102588.06
2022-08-05T17:59:01.080Z,102626.78
2022-08-05T19:42:06.279Z,102707.25
2022-08-05T19:52:06.121Z,102724.25
2022-08-05T19:54:27.268Z,102726.75
2022-08-05T19:57:06.649Z,102721.41
2022-08-05T19:59:55.935Z,102724.75
2022-08-05T20:02:26.942Z,102727.28
2022-08-05T20:04:59.198Z,102732.34
2022-08-05T20:07:48.560Z,102733.16
2022-08-05T20:10:19.425Z,102739.16
2022-08-05T20:12:52.803Z,102741.59
2022-08-05T20:15:47.958Z,102740.56
2022-08-05T20:18:33.889Z,102752.50
2022-08-05T20:20:59.894Z,102765.44
2022-08-05T20:23:40.055Z,102760.97
2022-08-05T20:26:17.512Z,102764.25
2022-08-05T20:28:48.950Z,102762.34
2022-08-05T20:31:21.547Z,102766.53
2022-08-05T20:33:51.076Z,102776.81
2022-08-05T20:36:20.063Z,102777.59
2022-08-05T20:38:53.582Z,102783.50
2022-08-05T20:41:43.537Z,102779.88
2022-08-05T20:44:29.359Z,102787.56
2022-08-05T20:47:03.651Z,102790.84
2022-08-05T20:49:37.982Z,102796.75
2022-08-05T20:52:08.889Z,102800.06
2022-08-05T20:54:43.557Z,102803.31
2022-08-05T20:57:43.130Z,102799.69
2022-08-05T21:00:34.886Z,102809.88
2022-08-05T21:03:07.793Z,102807.97
2022-08-05T21:05:53.653Z,102818.28
2022-08-05T21:08:26.891Z,102814.66
2022-08-05T21:11:10.073Z,102821.47
2022-08-05T21:13:56.059Z,102817.91
2022-08-05T21:16:29.877Z,102817.75
2022-08-05T21:19:00.279Z,102815.00
2022-08-05T21:21:39.430Z,102827.91
2022-08-05T21:24:13.499Z,102824.31
2022-08-05T21:26:50.520Z,102828.59
2022-08-05T21:29:26.594Z,102825.06
2022-08-05T21:32:02.163Z,102832.84
2022-08-05T21:34:31.621Z,102827.53
2022-08-05T21:37:01.785Z,102828.34
2022-08-05T21:39:30.719Z,102826.50
2022-08-05T21:42:02.585Z,102831.59
2022-08-05T21:44:31.059Z,102836.66
2022-08-05T21:47:01.492Z,102840.00
2022-08-05T21:50:00.092Z,102843.38
2022-08-05T21:52:26.940Z,102843.25
2022-08-05T21:54:56.804Z,102848.38
2022-08-05T21:57:32.684Z,102845.78
2022-08-05T22:00:06.018Z,102853.56
2022-08-05T22:02:37.523Z,102846.53
2022-08-05T22:05:06.206Z,102838.56
2022-08-05T22:07:54.168Z,102842.03
2022-08-05T22:10:25.602Z,102854.94
2022-08-05T22:12:57.117Z,102852.16
2022-08-05T22:16:00.639Z,102852.91
2022-08-05T22:18:16.038Z,102856.13
2022-08-05T22:20:47.757Z,102861.31
2022-08-05T22:24:02.650Z,102864.66
2022-08-05T22:26:54.488Z,102872.41
2022-08-05T22:29:26.895Z,102864.44
2022-08-05T22:32:03.080Z,102866.03
2022-08-05T22:34:33.090Z,102863.44
2022-08-05T22:37:03.825Z,102868.59
2022-08-05T22:39:34.654Z,102871.13
2022-08-05T22:42:11.016Z,102861.50
2022-08-05T22:44:40.871Z,102864.94
2022-08-05T22:47:11.174Z,102866.63
2022-08-05T22:50:20.742Z,102860.44
2022-08-05T22:52:32.292Z,102866.38
2022-08-05T22:55:02.287Z,102860.25
2022-08-05T22:57:36.247Z,102864.47
2022-08-05T23:00:05.521Z,102866.97
2022-08-05T23:02:40.085Z,102862.56
2022-08-05T23:05:16.726Z,102866.78
2022-08-05T23:07:45.377Z,102872.72
2022-08-05T23:10:19.517Z,102870.78
2022-08-05T23:12:48.060Z,102877.56
2022-08-05T23:15:19.774Z,102876.50
2022-08-05T23:18:00.801Z,102880.72
2022-08-05T23:20:37.260Z,102882.41
2022-08-05T23:23:08.591Z,102884.88
2022-08-05T23:25:54.985Z,102895.16
2022-08-05T23:28:29.182Z,102898.34
2022-08-05T23:31:15.652Z,102899.81
2022-08-05T23:34:04.422Z,102904.81
2022-08-05T23:36:44.630Z,102895.97
2022-08-05T23:39:17.107Z,102903.78
2022-08-05T23:41:51.674Z,102907.91
2022-08-05T23:44:22.581Z,102917.34
2022-08-05T23:46:56.101Z,102926.91
2022-08-05T23:49:35.739Z,102931.19
2022-08-05T23:52:25.257Z,102929.41
2022-08-05T23:54:53.993Z,102925.91
2022-08-05T23:57:22.684Z,102931.91
